createdAt,value
2022-08-09T00:00:21.218Z,52.20
2022-08-09T00:02:49.989Z,52.42
2022-08-09T00:06:17.501Z,52.92
2022-08-09T00:08:31.651Z,52.83
2022-08-09T00:10:59.785Z,52.94
2022-08-09T00:13:28.068Z,53.33
2022-08-09T00:16:02.658Z,52.94
2022-08-09T00:18:34.772Z,52.83
2022-08-09T00:21:07.694Z,52.84
2022-08-09T00:23:54.986Z,52.93
2022-08-09T00:26:29.820Z,52.91
2022-08-09T00:29:00.907Z,52.96
2022-08-09T00:31:58.195Z,53.10
2022-08-09T00:34:19.299Z,52.90
2022-08-09T00:36:49.297Z,53.00
2022-08-09T00:40:13.597Z,53.26
2022-08-09T00:44:19.577Z,53.47
2022-08-09T00:44:53.760Z,53.22
2022-08-09T00:47:21.614Z,53.21
2022-08-09T00:49:56.509Z,53.41
2022-08-09T00:52:30.024Z,53.33
2022-08-09T00:54:59.158Z,53.65
2022-08-09T00:57:34.568Z,53.86
2022-08-09T01:00:21.247Z,53.37
2022-08-09T01:02:52.259Z,53.72
2022-08-09T01:05:51.740Z,53.59
2022-08-09T01:08:26.865Z,53.81
2022-08-09T01:11:02.387Z,53.87
2022-08-09T01:13:53.494Z,53.63
2022-08-09T01:16:23.419Z,53.71
2022-08-09T01:19:02.458Z,53.81
2022-08-09T01:21:44.956Z,53.78
2022-08-09T01:24:28.243Z,53.67
2022-08-09T01:27:01.811Z,53.75
2022-08-09T01:29:54.897Z,54.00
2022-08-09T01:32:32.514Z,53.94
2022-08-09T01:35:06.845Z,54.11
2022-08-09T01:38:06.340Z,54.23
2022-08-09T01:40:28.594Z,54.24
2022-08-09T01:42:58.363Z,54.00
2022-08-09T01:45:27.449Z,54.14
2022-08-09T01:47:57.445Z,54.10
2022-08-09T01:50:36.419Z,54.44
2022-08-09T01:53:19.484Z,54.76
2022-08-09T01:55:48.914Z,54.87
2022-08-09T01:58:18.404Z,54.71
2022-08-09T02:00:53.180Z,54.75
2022-08-09T02:03:21.506Z,54.95
2022-08-09T02:06:03.825Z,54.87
2022-08-09T02:08:57.948Z,54.92
2022-08-09T02:11:24.866Z,54.32
2022-08-09T02:14:14.946Z,54.67
2022-08-09T02:17:00.109Z,54.59
2022-08-09T02:19:35.002Z,54.72
2022-08-09T02:22:11.723Z,54.70
2022-08-09T02:24:40.277Z,54.71
2022-08-09T02:27:09.652Z,54.77
2022-08-09T02:29:44.113Z,54.88
2022-08-09T02:32:13.096Z,54.73
2022-08-09T02:34:51.818Z,54.66
2022-08-09T02:37:31.605Z,54.60
2022-08-09T02:40:10.354Z,54.74
2022-08-09T02:42:40.164Z,54.92
2022-08-09T02:45:16.248Z,54.99
2022-08-09T02:47:58.080Z,55.00
2022-08-09T02:50:29.916Z,55.00
2022-08-09T02:53:01.352Z,54.98
2022-08-09T02:55:46.097Z,55.21
2022-08-09T02:58:36.039Z,55.36
2022-08-09T03:01:07.979Z,55.17
2022-08-09T03:04:17.352Z,55.36
2022-08-09T03:06:27.394Z,55.34
2022-08-09T03:08:55.872Z,55.43
2022-08-09T03:11:29.964Z,55.44
2022-08-09T03:14:13.327Z,55.86
2022-08-09T03:16:47.548Z,55.71
2022-08-09T03:19:52.818Z,55.89
2022-08-09T03:22:05.956Z,55.95
2022-08-09T03:24:51.784Z,56.16
2022-08-09T03:27:21.626Z,56.03
2022-08-09T03:29:58.252Z,56.37
2022-08-09T03:32:31.399Z,56.60
2022-08-09T03:34:59.768Z,56.46
2022-08-09T03:37:56.707Z,56.49
2022-08-09T03:40:18.190Z,56.82
2022-08-09T03:42:46.648Z,56.75
2022-08-09T03:45:15.421Z,56.91
2022-08-09T03:47:46.703Z,56.88
2022-08-09T03:50:18.897Z,57.17
2022-08-09T03:52:56.267Z,57.26
2022-08-09T03:55:25.556Z,57.48
2022-08-09T03:58:03.658Z,57.66
2022-08-09T04:00:38.197Z,57.86
2022-08-09T04:03:08.158Z,57.70
2022-08-09T04:05:40.488Z,57.88
2022-08-09T04:08:08.476Z,57.73
2022-08-09T04:10:36.577Z,57.98
2022-08-09T04:13:12.903Z,58.31
2022-08-09T04:16:18.840Z,57.88
2022-08-09T04:18:35.826Z,57.89
2022-08-09T04:21:03.971Z,58.07
2022-08-09T04:23:31.779Z,57.81
2022-08-09T04:26:01.144Z,57.99
2022-08-09T04:28:31.362Z,58.19
2022-08-09T04:31:05.710Z,58.12
2022-08-09T04:33:47.589Z,57.97
2022-08-09T04:36:19.869Z,58.40
2022-08-09T04:38:47.652Z,58.60
2022-08-09T04:41:15.367Z,58.27
2022-08-09T04:43:53.846Z,58.09
2022-08-09T04:46:38.013Z,58.46
2022-08-09T04:49:22.347Z,58.54
2022-08-09T04:52:09.654Z,58.70
2022-08-09T04:54:37.717Z,58.54
2022-08-09T04:57:09.383Z,58.70
2022-08-09T04:59:39.997Z,58.93
2022-08-09T05:02:07.886Z,59.00
2022-08-09T05:04:37.471Z,59.43
2022-08-09T05:07:06.137Z,59.15
2022-08-09T05:09:45.566Z,59.39
2022-08-09T05:12:17.696Z,59.46
2022-08-09T05:14:46.266Z,59.43
2022-08-09T05:17:15.203Z,59.71
2022-08-09T05:20:02.948Z,59.44
2022-08-09T05:22:36.030Z,59.93
2022-08-09T05:25:18.516Z,60.15
2022-08-09T05:27:48.054Z,60.83
2022-08-09T05:30:17.622Z,60.89
2022-08-09T05:32:50.904Z,60.99
2022-08-09T05:35:22.419Z,61.02
2022-08-09T05:37:50.965Z,61.06
2022-08-09T05:40:19.768Z,61.16
2022-08-09T05:42:49.608Z,60.61
2022-08-09T05:45:17.518Z,60.95
2022-08-09T05:47:45.598Z,61.18
2022-08-09T05:50:44.008Z,60.66
2022-08-09T05:53:31.770Z,60.71
2022-08-09T05:55:59.880Z,60.30
2022-08-09T05:58:29.694Z,59.16
2022-08-09T06:00:58.244Z,60.20
2022-08-09T06:03:34.829Z,59.74
2022-08-09T06:06:14.003Z,59.54
2022-08-09T06:08:42.328Z,59.60
2022-08-09T06:11:17.591Z,58.80
2022-08-09T06:13:47.527Z,59.18
2022-08-09T06:16:16.311Z,58.52
2022-08-09T06:18:44.260Z,58.15
2022-08-09T06:21:16.326Z,57.83
2022-08-09T06:23:58.820Z,57.64
2022-08-09T06:26:29.957Z,57.41
2022-08-09T06:29:05.221Z,57.49
2022-08-09T06:31:39.666Z,57.24
2022-08-09T06:34:22.550Z,57.20
2022-08-09T06:36:57.274Z,57.17
2022-08-09T06:39:38.693Z,56.88
2022-08-09T06:42:15.183Z,56.56
2022-08-09T06:44:43.376Z,55.84
2022-08-09T06:47:11.651Z,56.26
2022-08-09T06:50:11.252Z,55.52
2022-08-09T06:52:30.167Z,55.83
2022-08-09T06:54:58.231Z,55.70
2022-08-09T06:58:01.336Z,55.73
2022-08-09T07:00:51.716Z,55.79
2022-08-09T07:03:05.395Z,55.06
2022-08-09T07:05:58.570Z,54.91
2022-08-09T07:08:24.704Z,54.80
2022-08-09T07:10:53.201Z,54.04
2022-08-09T07:13:28.016Z,54.27
2022-08-09T07:16:41.286Z,54.14
2022-08-09T07:18:47.458Z,53.19
2022-08-09T07:21:18.201Z,52.62
2022-08-09T07:23:57.794Z,53.07
2022-08-09T07:26:26.024Z,52.45
2022-08-09T07:29:09.162Z,52.23
2022-08-09T07:31:45.347Z,51.90
2022-08-09T07:34:20.286Z,50.85
2022-08-09T07:36:49.367Z,50.75
2022-08-09T07:39:20.596Z,50.76
2022-08-09T07:42:07.317Z,49.89
2022-08-09T07:44:51.882Z,50.19
2022-08-09T07:47:21.775Z,49.89
2022-08-09T07:50:05.335Z,50.05
2022-08-09T07:52:36.674Z,50.15
2022-08-09T07:55:09.788Z,49.99
2022-08-09T07:57:37.925Z,49.57
2022-08-09T08:00:20.865Z,50.16
2022-08-09T08:03:05.108Z,50.31
2022-08-09T08:05:39.102Z,49.99
2022-08-09T08:09:00.594Z,50.20
2022-08-09T08:12:10.577Z,50.05
2022-08-09T08:13:59.824Z,50.17
2022-08-09T08:16:29.617Z,50.36
2022-08-09T08:19:02.773Z,50.08
2022-08-09T08:21:31.664Z,50.44
2022-08-09T08:24:01.066Z,50.22
2022-08-09T08:26:42.086Z,50.18
2022-08-09T08:29:20.019Z,50.00
2022-08-09T08:32:03.737Z,50.04
2022-08-09T08:34:34.322Z,50.07
2022-08-09T08:37:02.874Z,50.35
2022-08-09T08:39:38.229Z,49.93
2022-08-09T08:42:13.920Z,49.51
2022-08-09T08:44:44.854Z,49.16
2022-08-09T08:47:16.097Z,49.31
2022-08-09T08:49:47.970Z,49.55
2022-08-09T08:52:52.593Z,49.63
2022-08-09T08:55:06.333Z,49.92
2022-08-09T08:57:37.494Z,49.45
2022-08-09T09:00:20.457Z,48.80
2022-08-09T09:03:03.028Z,49.51
2022-08-09T09:06:00.998Z,48.98
2022-08-09T09:08:30.388Z,48.54
2022-08-09T09:11:02.509Z,48.54
2022-08-09T09:13:41.684Z,48.85
2022-08-09T09:16:30.404Z,48.56
2022-08-09T09:19:22.549Z,48.71
2022-08-09T09:22:03.986Z,47.89
2022-08-09T09:24:35.084Z,48.55
2022-08-09T09:27:07.053Z,48.05
2022-08-09T09:30:10.679Z,47.89
2022-08-09T09:32:32.250Z,47.19
2022-08-09T09:35:09.454Z,46.92
2022-08-09T09:37:40.207Z,46.61
2022-08-09T09:40:11.877Z,46.86
2022-08-09T09:42:46.112Z,46.43
2022-08-09T09:45:26.366Z,46.75
2022-08-09T09:47:59.068Z,46.05
2022-08-09T09:50:49.721Z,46.32
2022-08-09T09:53:21.274Z,46.70
2022-08-09T09:56:05.311Z,45.87
2022-08-09T09:58:46.291Z,45.49
2022-08-09T10:01:31.477Z,45.82
2022-08-09T10:04:09.649Z,44.93
2022-08-09T10:06:43.032Z,44.98
2022-08-09T10:09:22.751Z,44.17
2022-08-09T10:12:07.772Z,43.93
2022-08-09T10:14:48.228Z,44.30
2022-08-09T10:17:54.984Z,43.01
2022-08-09T10:20:27.684Z,43.29
2022-08-09T10:23:17.436Z,42.15
2022-08-09T10:26:07.755Z,41.96
2022-08-09T10:28:37.536Z,42.78
2022-08-09T10:34:10.874Z,41.87
2022-08-09T10:36:43.672Z,41.66
2022-08-09T10:39:15.780Z,41.57
2022-08-09T10:41:45.992Z,41.36
2022-08-09T10:44:18.837Z,41.77
2022-08-09T10:48:12.447Z,40.28
2022-08-09T10:50:05.727Z,41.06
2022-08-09T10:52:53.451Z,41.02
2022-08-09T10:55:22.807Z,40.99
2022-08-09T10:57:51.709Z,40.40
2022-08-09T11:01:10.865Z,40.40
2022-08-09T11:03:50.042Z,40.88
2022-08-09T11:06:26.093Z,40.71
2022-08-09T11:08:54.954Z,41.12
2022-08-09T11:12:10.407Z,40.85
2022-08-09T11:14:41.821Z,41.09
2022-08-09T11:17:53.313Z,40.82
2022-08-09T11:20:41.568Z,40.79
2022-08-09T11:23:13.644Z,40.06
2022-08-09T11:25:48.380Z,40.24
2022-08-09T11:28:56.154Z,40.25
2022-08-09T11:31:49.488Z,39.54
2022-08-09T11:34:32.101Z,40.42
2022-08-09T11:37:01.506Z,40.13
2022-08-09T11:39:37.895Z,40.51
2022-08-09T11:42:14.906Z,40.42
2022-08-09T11:44:46.688Z,40.15
2022-08-09T11:47:15.223Z,39.85
2022-08-09T11:50:54.378Z,40.32
2022-08-09T11:53:59.154Z,39.38
2022-08-09T11:56:42.209Z,39.59
2022-08-09T11:59:30.271Z,40.08
2022-08-09T12:02:17.451Z,39.28
2022-08-09T12:04:47.415Z,39.60
2022-08-09T12:07:18.623Z,39.24
2022-08-09T12:09:50.982Z,40.09
2022-08-09T12:12:29.148Z,39.03
2022-08-09T12:15:08.244Z,38.65
2022-08-09T12:17:44.610Z,39.40
2022-08-09T12:20:21.830Z,38.19
2022-08-09T12:22:51.552Z,38.26
2022-08-09T12:25:31.963Z,39.14
2022-08-09T12:28:59.035Z,39.03
2022-08-09T12:31:01.623Z,38.78
2022-08-09T12:33:51.038Z,39.35
2022-08-09T12:36:31.347Z,38.64
2022-08-09T12:39:02.281Z,39.04
2022-08-09T12:41:38.231Z,38.83
2022-08-09T12:44:09.694Z,39.19
2022-08-09T12:46:38.496Z,39.08
2022-08-09T12:49:07.377Z,39.09
2022-08-09T12:51:59.976Z,38.16
2022-08-09T12:54:24.456Z,37.73
2022-08-09T12:56:54.662Z,37.62
2022-08-09T12:59:24.986Z,38.18
2022-08-09T13:02:12.884Z,38.28
2022-08-09T13:04:43.315Z,38.25
2022-08-09T13:07:16.318Z,38.29
2022-08-09T13:09:52.782Z,38.63
2022-08-09T13:12:24.316Z,38.34
2022-08-09T13:14:55.172Z,38.69
2022-08-09T13:18:02.465Z,38.27
2022-08-09T13:20:16.204Z,38.08
2022-08-09T13:23:01.389Z,37.87
2022-08-09T13:25:42.029Z,37.84
2022-08-09T13:28:18.848Z,38.00
2022-08-09T13:32:09.870Z,38.51
2022-08-09T13:33:57.300Z,38.89
2022-08-09T13:36:40.246Z,37.69
2022-08-09T13:41:54.354Z,37.60
2022-08-09T13:42:02.146Z,37.92
2022-08-09T13:44:30.719Z,38.29
2022-08-09T13:47:28.788Z,37.17
2022-08-09T13:49:56.065Z,37.90
2022-08-09T13:52:25.026Z,37.54
2022-08-09T13:54:59.314Z,37.51
2022-08-09T13:57:36.596Z,37.30
2022-08-09T14:00:12.172Z,38.13
2022-08-09T14:03:02.273Z,37.21
2022-08-09T14:06:01.121Z,36.97
2022-08-09T14:08:18.218Z,38.42
2022-08-09T14:10:52.537Z,37.64
2022-08-09T14:13:27.836Z,37.22
2022-08-09T14:16:13.905Z,37.29
2022-08-09T14:18:46.035Z,37.95
2022-08-09T14:21:18.473Z,37.59
2022-08-09T14:23:55.175Z,37.49
2022-08-09T14:26:25.205Z,37.29
2022-08-09T14:28:53.198Z,37.83
2022-08-09T14:31:23.680Z,37.76
2022-08-09T14:34:10.093Z,37.56
2022-08-09T14:36:39.885Z,37.58
2022-08-09T14:39:11.090Z,37.58
2022-08-09T14:41:40.468Z,36.94
2022-08-09T14:44:11.296Z,37.05
2022-08-09T14:47:04.798Z,37.30
2022-08-09T14:49:29.571Z,37.00
2022-08-09T14:52:02.379Z,38.05
2022-08-09T14:54:30.349Z,36.62
2022-08-09T14:57:01.635Z,36.53
2022-08-09T14:59:31.204Z,36.68
2022-08-09T15:02:06.439Z,36.81
2022-08-09T15:04:38.058Z,37.24
2022-08-09T15:07:06.041Z,36.48
2022-08-09T15:10:03.603Z,36.18
2022-08-09T15:12:25.764Z,35.91
2022-08-09T15:14:55.369Z,36.03
2022-08-09T15:17:23.230Z,36.73
2022-08-09T15:20:02.229Z,36.72
2022-08-09T15:22:30.671Z,36.24
2022-08-09T15:25:00.805Z,36.08
2022-08-09T15:27:47.821Z,36.59
2022-08-09T15:30:58.790Z,36.84
2022-08-09T15:33:07.543Z,36.92
2022-08-09T15:35:43.984Z,36.54
2022-08-09T15:38:12.489Z,36.39
2022-08-09T15:40:43.660Z,36.96
2022-08-09T15:43:13.304Z,36.33
2022-08-09T15:46:08.027Z,36.75
2022-08-09T15:48:30.662Z,36.41
2022-08-09T15:51:01.918Z,36.53
2022-08-09T15:54:03.560Z,36.77
2022-08-09T15:56:29.464Z,36.93
2022-08-09T15:58:59.445Z,36.62
2022-08-09T16:01:27.369Z,36.13
2022-08-09T16:03:59.335Z,35.88
2022-08-09T16:06:35.435Z,36.07
2022-08-09T16:09:05.792Z,36.24
2022-08-09T16:11:33.882Z,36.36
2022-08-09T16:14:06.967Z,36.64
2022-08-09T16:16:37.350Z,36.63
2022-08-09T16:19:05.976Z,37.11
2022-08-09T16:21:36.750Z,36.71
2022-08-09T16:24:05.081Z,37.01
2022-08-09T16:26:36.968Z,36.85
2022-08-09T16:29:11.166Z,37.25
2022-08-09T16:32:19.422Z,37.30
2022-08-09T16:34:28.977Z,36.91
2022-08-09T16:36:58.203Z,37.05
2022-08-09T16:39:26.353Z,37.32
2022-08-09T16:42:03.934Z,37.09
2022-08-09T16:44:32.626Z,37.75
2022-08-09T16:47:01.952Z,37.19
2022-08-09T16:50:32.071Z,37.76
2022-08-09T16:52:37.422Z,37.38
2022-08-09T16:55:08.096Z,37.56
2022-08-09T16:58:08.733Z,37.61
2022-08-09T17:00:28.645Z,37.32
2022-08-09T17:02:58.382Z,37.40
2022-08-09T17:06:02.730Z,37.58
2022-08-09T17:08:45.942Z,37.28
2022-08-09T17:11:03.013Z,36.91
2022-08-09T17:13:34.342Z,37.39
2022-08-09T17:16:02.673Z,37.48
2022-08-09T17:18:30.799Z,38.07
2022-08-09T17:20:58.623Z,37.89
2022-08-09T17:23:36.989Z,37.55
2022-08-09T17:26:17.642Z,38.01
2022-08-09T17:28:59.916Z,38.03
2022-08-09T17:31:29.906Z,38.29
2022-08-09T17:34:06.735Z,38.52
2022-08-09T17:36:54.501Z,38.41
2022-08-09T17:39:24.990Z,38.63
2022-08-09T17:41:53.053Z,38.82
2022-08-09T17:44:38.641Z,38.84
2022-08-09T17:47:10.658Z,39.11
2022-08-09T17:49:52.382Z,39.01
2022-08-09T17:52:26.690Z,38.97
2022-08-09T17:54:56.180Z,39.23
2022-08-09T17:58:03.204Z,39.21
2022-08-09T18:00:13.618Z,39.45
2022-08-09T18:02:41.821Z,39.78
2022-08-09T18:05:29.254Z,39.66
2022-08-09T18:08:11.237Z,39.83
2022-08-09T18:10:46.026Z,40.14
2022-08-09T18:13:40.945Z,39.82
2022-08-09T18:16:16.790Z,40.13
2022-08-09T18:18:49.103Z,39.88
2022-08-09T18:21:23.486Z,40.38
2022-08-09T18:24:11.630Z,40.61
2022-08-09T18:26:46.917Z,40.52
2022-08-09T18:30:42.194Z,40.62
2022-08-09T18:32:04.031Z,40.66
2022-08-09T18:34:35.194Z,41.00
2022-08-09T18:37:03.765Z,40.90
2022-08-09T18:39:32.253Z,40.94
2022-08-09T18:42:08.126Z,41.34
2022-08-09T18:44:36.903Z,41.62
2022-08-09T18:47:09.928Z,41.62
2022-08-09T18:49:46.942Z,41.66
2022-08-09T18:52:18.822Z,41.50
2022-08-09T18:54:56.374Z,41.19
2022-08-09T18:57:38.569Z,41.38
2022-08-09T19:00:12.072Z,41.71
2022-08-09T19:02:47.077Z,41.41
2022-08-09T19:05:28.132Z,41.99
2022-08-09T19:08:09.503Z,41.67
2022-08-09T19:10:39.543Z,42.08
2022-08-09T19:13:19.279Z,41.95
2022-08-09T19:15:51.806Z,42.09
2022-08-09T19:18:35.175Z,42.37
2022-08-09T19:21:08.788Z,42.50
2022-08-09T19:24:35.612Z,42.25
2022-08-09T19:26:31.522Z,42.69
2022-08-09T19:29:03.369Z,42.66
2022-08-09T19:31:45.768Z,43.02
2022-08-09T19:34:18.331Z,43.23
2022-08-09T19:36:51.778Z,43.25
2022-08-09T19:39:20.643Z,43.25
2022-08-09T19:41:57.455Z,43.84
2022-08-09T19:44:29.529Z,43.96
2022-08-09T19:46:57.549Z,43.85
2022-08-09T19:50:09.151Z,43.81
2022-08-09T19:52:13.157Z,43.86
2022-08-09T19:54:41.968Z,44.15
2022-08-09T19:57:10.084Z,43.96
2022-08-09T20:00:06.490Z,44.17
2022-08-09T20:04:18.308Z,44.54
2022-08-09T20:05:16.465Z,44.60
2022-08-09T20:07:58.969Z,44.80
2022-08-09T20:10:34.436Z,44.89
2022-08-09T20:13:05.384Z,45.29
2022-08-09T20:16:33.948Z,45.24
2022-08-09T20:18:23.114Z,45.75
2022-08-09T20:20:56.115Z,45.70
2022-08-09T20:23:25.504Z,45.58
2022-08-09T20:26:07.282Z,45.54
2022-08-09T20:28:47.721Z,45.91
2022-08-09T20:31:19.336Z,46.11
2022-08-09T20:33:52.530Z,45.83
2022-08-09T20:36:27.250Z,46.33
2022-08-09T20:40:13.467Z,46.35
2022-08-09T20:41:44.000Z,46.42
2022-08-09T20:44:14.293Z,46.14
2022-08-09T20:46:44.497Z,46.27
2022-08-09T20:49:13.675Z,46.42
2022-08-09T20:51:42.363Z,46.51
2022-08-09T20:54:12.445Z,47.06
2022-08-09T20:56:41.193Z,46.90
2022-08-09T20:59:09.998Z,46.50
2022-08-09T21:01:50.557Z,46.99
2022-08-09T21:05:53.444Z,47.29
2022-08-09T21:07:13.066Z,47.22
2022-08-09T21:09:45.876Z,47.66
2022-08-09T21:15:23.779Z,47.59
2022-08-09T21:18:23.237Z,47.72
2022-08-09T21:20:54.586Z,47.39
2022-08-09T21:23:26.303Z,47.76
2022-08-09T21:26:11.591Z,47.67
2022-08-09T21:28:39.699Z,47.61
2022-08-09T21:31:23.823Z,47.77
2022-08-09T21:33:53.021Z,47.72
2022-08-09T21:36:28.713Z,47.70
2022-08-09T21:38:59.232Z,47.59
2022-08-09T21:42:04.738Z,47.28
2022-08-09T21:44:33.000Z,47.51
2022-08-09T21:47:03.021Z,47.70
2022-08-09T21:49:39.160Z,47.52
2022-08-09T21:52:16.314Z,47.86
2022-08-09T21:54:50.631Z,47.62
2022-08-09T21:57:38.712Z,47.22
2022-08-09T22:00:17.753Z,47.56
2022-08-09T22:02:58.285Z,47.64
2022-08-09T22:05:35.886Z,47.67
2022-08-09T22:08:12.907Z,47.74
2022-08-09T22:11:04.861Z,47.26
2022-08-09T22:13:31.530Z,47.59
2022-08-09T22:16:03.701Z,47.59
2022-08-09T22:18:32.938Z,47.63
2022-08-09T22:21:01.193Z,47.73
2022-08-09T22:23:35.207Z,47.82
2022-08-09T22:26:06.492Z,48.10
2022-08-09T22:28:36.598Z,48.30
2022-08-09T22:31:15.744Z,48.44
2022-08-09T22:33:48.958Z,48.05
2022-08-09T22:36:19.230Z,48.39
2022-08-09T22:38:49.068Z,48.38
2022-08-09T22:41:17.295Z,48.99
2022-08-09T22:44:02.276Z,48.52
2022-08-09T22:48:13.940Z,48.67
2022-08-09T22:49:19.970Z,49.02
2022-08-09T22:51:49.894Z,48.68
2022-08-09T22:54:27.537Z,48.76
2022-08-09T22:56:57.042Z,49.04
2022-08-09T22:59:58.468Z,49.25
2022-08-09T23:02:15.028Z,49.18
2022-08-09T23:04:54.014Z,49.91
2022-08-09T23:08:22.887Z,49.99
2022-08-09T23:10:30.422Z,49.61
2022-08-09T23:12:58.265Z,49.33
2022-08-09T23:15:26.053Z,49.54
2022-08-09T23:17:53.687Z,49.66
2022-08-09T23:20:21.507Z,49.90
2022-08-09T23:22:49.340Z,49.92
2022-08-09T23:25:16.981Z,49.88
2022-08-09T23:27:59.638Z,49.92
2022-08-09T23:30:33.740Z,49.57
2022-08-09T23:33:01.341Z,50.30
2022-08-09T23:35:29.077Z,49.91
2022-08-09T23:37:56.739Z,50.25
2022-08-09T23:40:24.353Z,50.03
2022-08-09T23:42:53.290Z,50.31
2022-08-09T23:45:37.206Z,49.91
2022-08-09T23:48:08.983Z,50.63
2022-08-09T23:50:37.346Z,50.56
2022-08-09T23:53:05.544Z,50.81
2022-08-09T23:55:37.810Z,50.47
2022-08-09T23:58:25.501Z,50.47
